sensor_id;sensor_type;location;lat;lon;timestamp;temperature;humidity
48019;DHT22;33786;48.690;9.562;2023-12-20T00:02:01;6.60;99.90
48019;DHT22;33786;48.690;9.562;2023-12-20T00:04:29;6.60;99.90
48019;DHT22;33786;48.690;9.562;2023-12-20T00:06:56;6.60;99.90
48019;DHT22;33786;48.690;9.562;2023-12-20T00:09:23;6.60;99.90
48019;DHT22;33786;48.690;9.562;2023-12-20T00:11:50;6.60;99.90
48019;DHT22;33786;48.690;9.562;2023-12-20T00:14:16;6.70;99.90
48019;DHT22;33786;48.690;9.562;2023-12-20T00:16:43;6.70;99.90
48019;DHT22;33786;48.690;9.562;2023-12-20T00:19:10;6.60;99.90
48019;DHT22;33786;48.690;9.562;2023-12-20T00:21:37;6.70;99.90
48019;DHT22;33786;48.690;9.562;2023-12-20T00:24:04;6.60;99.90
48019;DHT22;33786;48.690;9.562;2023-12-20T00:26:31;6.70;99.90
48019;DHT22;33786;48.690;9.562;2023-12-20T00:28:57;6.70;99.90
48019;DHT22;33786;48.690;9.562;2023-12-20T00:31:24;6.70;99.90
48019;DHT22;33786;48.690;9.562;2023-12-20T00:33:51;6.80;99.90
48019;DHT22;33786;48.690;9.562;2023-12-20T00:36:18;6.80;99.90
48019;DHT22;33786;48.690;9.562;2023-12-20T00:38:46;6.80;99.90
48019;DHT22;33786;48.690;9.562;2023-12-20T00:41:12;6.80;99.90
48019;DHT22;33786;48.690;9.562;2023-12-20T00:43:39;6.90;99.90
48019;DHT22;33786;48.690;9.562;2023-12-20T00:46:06;6.90;99.90
48019;DHT22;33786;48.690;9.562;2023-12-20T00:48:33;6.90;99.90
48019;DHT22;33786;48.690;9.562;2023-12-20T00:50:59;6.90;99.90
48019;DHT22;33786;48.690;9.562;2023-12-20T00:53:26;7.00;99.90
48019;DHT22;33786;48.690;9.562;2023-12-20T00:55:53;6.90;99.90
48019;DHT22;33786;48.690;9.562;2023-12-20T00:58:20;6.90;99.90
48019;DHT22;33786;48.690;9.562;2023-12-20T01:00:47;6.90;99.90
48019;DHT22;33786;48.690;9.562;2023-12-20T01:03:13;6.80;99.90
48019;DHT22;33786;48.690;9.562;2023-12-20T01:05:42;6.90;99.90
48019;DHT22;33786;48.690;9.562;2023-12-20T01:08:08;6.90;99.90
48019;DHT22;33786;48.690;9.562;2023-12-20T01:10:35;7.00;99.90
48019;DHT22;33786;48.690;9.562;2023-12-20T01:13:02;6.80;99.90
48019;DHT22;33786;48.690;9.562;2023-12-20T01:15:29;6.70;99.90
48019;DHT22;33786;48.690;9.562;2023-12-20T01:17:55;6.60;99.90
48019;DHT22;33786;48.690;9.562;2023-12-20T01:20:25;6.60;99.90
48019;DHT22;33786;48.690;9.562;2023-12-20T01:22:52;6.50;99.90
48019;DHT22;33786;48.690;9.562;2023-12-20T01:25:19;6.40;99.90
48019;DHT22;33786;48.690;9.562;2023-12-20T01:27:46;6.40;99.90
48019;DHT22;33786;48.690;9.562;2023-12-20T01:30:14;6.40;99.90
48019;DHT22;33786;48.690;9.562;2023-12-20T01:32:41;6.40;99.90
48019;DHT22;33786;48.690;9.562;2023-12-20T01:35:08;6.40;99.90
48019;DHT22;33786;48.690;9.562;2023-12-20T01:37:34;6.40;99.90
48019;DHT22;33786;48.690;9.562;2023-12-20T01:40:01;6.40;99.90
48019;DHT22;33786;48.690;9.562;2023-12-20T01:42:28;6.30;99.90
48019;DHT22;33786;48.690;9.562;2023-12-20T01:44:56;6.20;99.90
48019;DHT22;33786;48.690;9.562;2023-12-20T01:47:22;6.20;99.90
48019;DHT22;33786;48.690;9.562;2023-12-20T01:49:50;6.30;99.90
48019;DHT22;33786;48.690;9.562;2023-12-20T01:52:18;6.10;99.90
48019;DHT22;33786;48.690;9.562;2023-12-20T01:54:47;6.00;99.90
48019;DHT22;33786;48.690;9.562;2023-12-20T01:57:14;6.00;99.90
48019;DHT22;33786;48.690;9.562;2023-12-20T01:59:42;6.00;99.90
48019;DHT22;33786;48.690;9.562;2023-12-20T02:02:10;6.00;99.90
48019;DHT22;33786;48.690;9.562;2023-12-20T02:04:39;5.90;99.90
48019;DHT22;33786;48.690;9.562;2023-12-20T02:07:07;6.00;99.90
48019;DHT22;33786;48.690;9.562;2023-12-20T02:09:35;5.90;99.90
48019;DHT22;33786;48.690;9.562;2023-12-20T02:12:02;5.90;99.90
48019;DHT22;33786;48.690;9.562;2023-12-20T02:14:29;5.80;99.90
48019;DHT22;33786;48.690;9.562;2023-12-20T02:16:56;5.80;99.90
48019;DHT22;33786;48.690;9.562;2023-12-20T02:19:22;5.80;99.90
48019;DHT22;33786;48.690;9.562;2023-12-20T02:21:50;5.80;99.90
48019;DHT22;33786;48.690;9.562;2023-12-20T02:24:17;5.80;99.90
48019;DHT22;33786;48.690;9.562;2023-12-20T02:26:44;5.80;99.90
48019;DHT22;33786;48.690;9.562;2023-12-20T02:29:13;5.70;99.90
48019;DHT22;33786;48.690;9.562;2023-12-20T02:31:39;5.80;99.90
48019;DHT22;33786;48.690;9.562;2023-12-20T02:34:06;5.80;99.90
48019;DHT22;33786;48.690;9.562;2023-12-20T02:36:33;5.70;99.90
48019;DHT22;33786;48.690;9.562;2023-12-20T02:39:00;5.80;99.90
48019;DHT22;33786;48.690;9.562;2023-12-20T02:41:27;5.80;99.90
48019;DHT22;33786;48.690;9.562;2023-12-20T02:43:53;5.80;99.90
48019;DHT22;33786;48.690;9.562;2023-12-20T02:46:20;5.80;99.90
48019;DHT22;33786;48.690;9.562;2023-12-20T02:48:47;5.80;99.90
48019;DHT22;33786;48.690;9.562;2023-12-20T02:51:14;5.80;99.90
48019;DHT22;33786;48.690;9.562;2023-12-20T02:53:41;5.80;99.90
48019;DHT22;33786;48.690;9.562;2023-12-20T02:56:08;5.80;99.90
48019;DHT22;33786;48.690;9.562;2023-12-20T02:58:35;5.80;99.90
48019;DHT22;33786;48.690;9.562;2023-12-20T03:01:02;5.80;99.90
48019;DHT22;33786;48.690;9.562;2023-12-20T03:03:29;5.80;99.90
48019;DHT22;33786;48.690;9.562;2023-12-20T03:05:55;5.80;99.90
48019;DHT22;33786;48.690;9.562;2023-12-20T03:08:22;5.80;99.90
48019;DHT22;33786;48.690;9.562;2023-12-20T03:10:49;5.90;99.90
48019;DHT22;33786;48.690;9.562;2023-12-20T03:13:16;5.80;99.90
48019;DHT22;33786;48.690;9.562;2023-12-20T03:15:43;5.90;99.90
48019;DHT22;33786;48.690;9.562;2023-12-20T03:18:10;6.00;99.90
48019;DHT22;33786;48.690;9.562;2023-12-20T03:20:37;6.00;99.90
48019;DHT22;33786;48.690;9.562;2023-12-20T03:23:04;6.00;99.90
48019;DHT22;33786;48.690;9.562;2023-12-20T03:25:30;6.00;99.90
48019;DHT22;33786;48.690;9.562;2023-12-20T03:27:57;6.10;99.90
48019;DHT22;33786;48.690;9.562;2023-12-20T03:30:24;6.00;99.90
48019;DHT22;33786;48.690;9.562;2023-12-20T03:32:51;6.00;99.90
48019;DHT22;33786;48.690;9.562;2023-12-20T03:35:18;6.00;99.90
48019;DHT22;33786;48.690;9.562;2023-12-20T03:37:45;5.90;99.90
48019;DHT22;33786;48.690;9.562;2023-12-20T03:40:12;5.90;99.90
48019;DHT22;33786;48.690;9.562;2023-12-20T03:42:39;5.90;99.90
48019;DHT22;33786;48.690;9.562;2023-12-20T03:45:06;5.90;99.90
48019;DHT22;33786;48.690;9.562;2023-12-20T03:47:33;5.90;99.90
48019;DHT22;33786;48.690;9.562;2023-12-20T03:50:00;5.90;99.90
48019;DHT22;33786;48.690;9.562;2023-12-20T03:52:26;5.90;99.90
48019;DHT22;33786;48.690;9.562;2023-12-20T03:54:54;5.90;99.90
48019;DHT22;33786;48.690;9.562;2023-12-20T03:57:20;5.90;99.90
48019;DHT22;33786;48.690;9.562;2023-12-20T03:59:47;5.90;99.90
48019;DHT22;33786;48.690;9.562;2023-12-20T04:02:14;5.70;99.90
48019;DHT22;33786;48.690;9.562;2023-12-20T04:04:41;5.70;99.90
48019;DHT22;33786;48.690;9.562;2023-12-20T04:07:08;5.70;99.90
48019;DHT22;33786;48.690;9.562;2023-12-20T04:09:35;5.60;99.90
48019;DHT22;33786;48.690;9.562;2023-12-20T04:12:02;5.70;99.90
48019;DHT22;33786;48.690;9.562;2023-12-20T04:14:29;5.70;99.90
48019;DHT22;33786;48.690;9.562;2023-12-20T04:16:56;5.70;99.90
48019;DHT22;33786;48.690;9.562;2023-12-20T04:19:23;5.70;99.90
48019;DHT22;33786;48.690;9.562;2023-12-20T04:21:50;5.70;99.90
48019;DHT22;33786;48.690;9.562;2023-12-20T04:24:17;5.60;99.90
48019;DHT22;33786;48.690;9.562;2023-12-20T04:26:43;5.60;99.90
48019;DHT22;33786;48.690;9.562;2023-12-20T04:29:10;5.60;99.90
48019;DHT22;33786;48.690;9.562;2023-12-20T04:31:37;5.60;99.90
48019;DHT22;33786;48.690;9.562;2023-12-20T04:34:04;5.60;99.90
48019;DHT22;33786;48.690;9.562;2023-12-20T04:36:30;5.60;99.90
48019;DHT22;33786;48.690;9.562;2023-12-20T04:38:57;5.60;99.90
48019;DHT22;33786;48.690;9.562;2023-12-20T04:41:26;5.60;99.90
48019;DHT22;33786;48.690;9.562;2023-12-20T04:43:54;5.60;99.90
48019;DHT22;33786;48.690;9.562;2023-12-20T04:46:21;5.60;99.90
48019;DHT22;33786;48.690;9.562;2023-12-20T04:48:48;5.60;99.90
48019;DHT22;33786;48.690;9.562;2023-12-20T04:51:15;5.40;99.90
48019;DHT22;33786;48.690;9.562;2023-12-20T04:53:41;5.40;99.90
48019;DHT22;33786;48.690;9.562;2023-12-20T04:56:08;5.50;99.90
48019;DHT22;33786;48.690;9.562;2023-12-20T04:58:35;5.50;99.90
48019;DHT22;33786;48.690;9.562;2023-12-20T05:01:02;5.50;99.90
48019;DHT22;33786;48.690;9.562;2023-12-20T05:03:29;5.50;99.90
48019;DHT22;33786;48.690;9.562;2023-12-20T05:05:56;5.40;99.90
48019;DHT22;33786;48.690;9.562;2023-12-20T05:08:23;5.50;99.90
48019;DHT22;33786;48.690;9.562;2023-12-20T05:10:50;5.50;99.90
48019;DHT22;33786;48.690;9.562;2023-12-20T05:13:17;5.50;99.90
48019;DHT22;33786;48.690;9.562;2023-12-20T05:15:44;5.50;99.90
48019;DHT22;33786;48.690;9.562;2023-12-20T05:18:10;5.50;99.90
48019;DHT22;33786;48.690;9.562;2023-12-20T05:20:37;5.80;99.90
48019;DHT22;33786;48.690;9.562;2023-12-20T05:23:04;5.60;99.90
48019;DHT22;33786;48.690;9.562;2023-12-20T05:25:31;5.60;99.90
48019;DHT22;33786;48.690;9.562;2023-12-20T05:27:58;5.50;99.90
48019;DHT22;33786;48.690;9.562;2023-12-20T05:30:25;5.50;99.90
48019;DHT22;33786;48.690;9.562;2023-12-20T05:32:52;5.60;99.90
48019;DHT22;33786;48.690;9.562;2023-12-20T05:35:19;5.60;99.90
48019;DHT22;33786;48.690;9.562;2023-12-20T05:37:46;5.60;99.90
48019;DHT22;33786;48.690;9.562;2023-12-20T05:40:13;5.50;99.90
48019;DHT22;33786;48.690;9.562;2023-12-20T05:42:40;5.50;99.90
48019;DHT22;33786;48.690;9.562;2023-12-20T05:45:07;5.50;99.90
48019;DHT22;33786;48.690;9.562;2023-12-20T05:47:34;5.40;99.90
48019;DHT22;33786;48.690;9.562;2023-12-20T05:50:00;5.40;99.90
48019;DHT22;33786;48.690;9.562;2023-12-20T05:52:27;5.40;99.90
48019;DHT22;33786;48.690;9.562;2023-12-20T05:54:54;5.30;99.90
48019;DHT22;33786;48.690;9.562;2023-12-20T05:57:23;5.30;99.90
48019;DHT22;33786;48.690;9.562;2023-12-20T05:59:50;5.20;99.90
48019;DHT22;33786;48.690;9.562;2023-12-20T06:02:17;5.20;99.90
48019;DHT22;33786;48.690;9.562;2023-12-20T06:04:43;5.30;99.90
48019;DHT22;33786;48.690;9.562;2023-12-20T06:07:14;5.30;99.90
48019;DHT22;33786;48.690;9.562;2023-12-20T06:09:42;5.40;99.90
48019;DHT22;33786;48.690;9.562;2023-12-20T06:12:09;5.40;99.90
48019;DHT22;33786;48.690;9.562;2023-12-20T06:14:36;5.30;99.90
48019;DHT22;33786;48.690;9.562;2023-12-20T06:17:03;5.30;99.90
48019;DHT22;33786;48.690;9.562;2023-12-20T06:19:30;5.30;99.90
48019;DHT22;33786;48.690;9.562;2023-12-20T06:21:57;5.30;99.90
48019;DHT22;33786;48.690;9.562;2023-12-20T06:24:24;5.30;99.90
48019;DHT22;33786;48.690;9.562;2023-12-20T06:26:54;5.40;99.90
48019;DHT22;33786;48.690;9.562;2023-12-20T06:29:24;5.40;99.90
48019;DHT22;33786;48.690;9.562;2023-12-20T06:31:51;5.40;99.90
48019;DHT22;33786;48.690;9.562;2023-12-20T06:34:17;5.40;99.90
48019;DHT22;33786;48.690;9.562;2023-12-20T06:36:44;5.20;99.90
48019;DHT22;33786;48.690;9.562;2023-12-20T06:39:11;5.20;99.90
48019;DHT22;33786;48.690;9.562;2023-12-20T06:41:39;5.20;99.90
48019;DHT22;33786;48.690;9.562;2023-12-20T06:44:06;5.20;99.90
48019;DHT22;33786;48.690;9.562;2023-12-20T06:46:33;5.10;99.90
48019;DHT22;33786;48.690;9.562;2023-12-20T06:48:59;5.20;99.90
48019;DHT22;33786;48.690;9.562;2023-12-20T06:51:28;5.20;99.90
48019;DHT22;33786;48.690;9.562;2023-12-20T06:53:55;5.10;99.90
48019;DHT22;33786;48.690;9.562;2023-12-20T06:56:21;5.20;99.90
48019;DHT22;33786;48.690;9.562;2023-12-20T06:58:48;5.10;99.90
48019;DHT22;33786;48.690;9.562;2023-12-20T07:01:16;5.10;99.90
48019;DHT22;33786;48.690;9.562;2023-12-20T07:03:43;5.20;99.90
48019;DHT22;33786;48.690;9.562;2023-12-20T07:06:10;5.20;99.90
48019;DHT22;33786;48.690;9.562;2023-12-20T07:08:38;5.20;99.90
48019;DHT22;33786;48.690;9.562;2023-12-20T07:11:05;5.20;99.90
48019;DHT22;33786;48.690;9.562;2023-12-20T07:13:32;5.20;99.90
48019;DHT22;33786;48.690;9.562;2023-12-20T07:15:59;5.30;99.90
48019;DHT22;33786;48.690;9.562;2023-12-20T07:18:26;5.30;99.90
48019;DHT22;33786;48.690;9.562;2023-12-20T07:20:53;5.10;99.90
48019;DHT22;33786;48.690;9.562;2023-12-20T07:23:21;5.40;99.90
48019;DHT22;33786;48.690;9.562;2023-12-20T07:25:48;5.40;99.90
48019;DHT22;33786;48.690;9.562;2023-12-20T07:28:14;5.30;99.90
48019;DHT22;33786;48.690;9.562;2023-12-20T07:30:41;5.20;99.90
48019;DHT22;33786;48.690;9.562;2023-12-20T07:33:08;5.20;99.90
48019;DHT22;33786;48.690;9.562;2023-12-20T07:35:36;5.20;99.90
48019;DHT22;33786;48.690;9.562;2023-12-20T07:38:04;5.20;99.90
48019;DHT22;33786;48.690;9.562;2023-12-20T07:40:30;5.20;99.90
48019;DHT22;33786;48.690;9.562;2023-12-20T07:42:57;5.10;99.90
48019;DHT22;33786;48.690;9.562;2023-12-20T07:45:25;5.20;99.90
48019;DHT22;33786;48.690;9.562;2023-12-20T07:47:51;5.30;99.90
48019;DHT22;33786;48.690;9.562;2023-12-20T07:50:18;5.40;99.90
48019;DHT22;33786;48.690;9.562;2023-12-20T07:52:45;5.40;99.90
48019;DHT22;33786;48.690;9.562;2023-12-20T07:55:12;5.40;99.90
48019;DHT22;33786;48.690;9.562;2023-12-20T07:57:39;5.50;99.90
48019;DHT22;33786;48.690;9.562;2023-12-20T08:00:06;5.50;99.90
48019;DHT22;33786;48.690;9.562;2023-12-20T08:02:33;5.50;99.90
48019;DHT22;33786;48.690;9.562;2023-12-20T08:05:00;5.50;99.90
48019;DHT22;33786;48.690;9.562;2023-12-20T08:07:26;5.50;99.90
48019;DHT22;33786;48.690;9.562;2023-12-20T08:09:53;5.50;99.90
48019;DHT22;33786;48.690;9.562;2023-12-20T08:12:21;5.50;99.90
48019;DHT22;33786;48.690;9.562;2023-12-20T08:14:48;5.40;99.90
48019;DHT22;33786;48.690;9.562;2023-12-20T08:17:15;5.30;99.90
48019;DHT22;33786;48.690;9.562;2023-12-20T08:19:42;5.30;99.90
48019;DHT22;33786;48.690;9.562;2023-12-20T08:22:09;5.30;99.90
48019;DHT22;33786;48.690;9.562;2023-12-20T08:24:36;5.40;99.90
48019;DHT22;33786;48.690;9.562;2023-12-20T08:27:04;5.40;99.90
48019;DHT22;33786;48.690;9.562;2023-12-20T08:29:31;5.40;99.90
48019;DHT22;33786;48.690;9.562;2023-12-20T08:31:58;5.40;99.90
48019;DHT22;33786;48.690;9.562;2023-12-20T08:34:25;5.40;99.90
48019;DHT22;33786;48.690;9.562;2023-12-20T08:36:53;5.40;99.90
48019;DHT22;33786;48.690;9.562;2023-12-20T08:39:20;5.50;99.90
48019;DHT22;33786;48.690;9.562;2023-12-20T08:41:47;5.40;99.90
48019;DHT22;33786;48.690;9.562;2023-12-20T08:44:14;5.40;99.90
48019;DHT22;33786;48.690;9.562;2023-12-20T08:46:40;5.30;99.90
48019;DHT22;33786;48.690;9.562;2023-12-20T08:49:07;5.50;99.90
48019;DHT22;33786;48.690;9.562;2023-12-20T08:51:36;5.40;99.90
48019;DHT22;33786;48.690;9.562;2023-12-20T08:54:06;5.40;99.90
48019;DHT22;33786;48.690;9.562;2023-12-20T08:56:36;5.40;99.90
48019;DHT22;33786;48.690;9.562;2023-12-20T08:59:03;5.60;99.90
48019;DHT22;33786;48.690;9.562;2023-12-20T09:01:31;5.60;99.90
48019;DHT22;33786;48.690;9.562;2023-12-20T09:03:58;5.80;99.90
48019;DHT22;33786;48.690;9.562;2023-12-20T09:06:25;5.90;99.90
48019;DHT22;33786;48.690;9.562;2023-12-20T09:08:52;6.10;99.90
48019;DHT22;33786;48.690;9.562;2023-12-20T09:11:19;6.10;99.90
48019;DHT22;33786;48.690;9.562;2023-12-20T09:13:46;6.00;99.90
48019;DHT22;33786;48.690;9.562;2023-12-20T09:16:13;6.10;99.90
48019;DHT22;33786;48.690;9.562;2023-12-20T09:18:42;6.40;99.90
48019;DHT22;33786;48.690;9.562;2023-12-20T09:21:09;6.50;99.90
48019;DHT22;33786;48.690;9.562;2023-12-20T09:23:36;6.60;99.90
48019;DHT22;33786;48.690;9.562;2023-12-20T09:26:03;6.50;99.90
48019;DHT22;33786;48.690;9.562;2023-12-20T09:28:30;6.60;99.90
48019;DHT22;33786;48.690;9.562;2023-12-20T09:30:59;6.70;99.90
48019;DHT22;33786;48.690;9.562;2023-12-20T09:33:26;6.80;99.90
48019;DHT22;33786;48.690;9.562;2023-12-20T09:35:53;6.90;99.90
48019;DHT22;33786;48.690;9.562;2023-12-20T09:38:20;6.90;99.90
48019;DHT22;33786;48.690;9.562;2023-12-20T09:40:47;6.90;99.90
48019;DHT22;33786;48.690;9.562;2023-12-20T09:43:15;6.50;99.90
48019;DHT22;33786;48.690;9.562;2023-12-20T09:45:47;6.60;99.90
48019;DHT22;33786;48.690;9.562;2023-12-20T09:48:17;6.80;99.90
48019;DHT22;33786;48.690;9.562;2023-12-20T09:50:44;6.90;99.90
48019;DHT22;33786;48.690;9.562;2023-12-20T09:53:18;7.00;99.90
48019;DHT22;33786;48.690;9.562;2023-12-20T09:55:46;7.00;99.90
48019;DHT22;33786;48.690;9.562;2023-12-20T09:58:13;7.10;99.90
48019;DHT22;33786;48.690;9.562;2023-12-20T10:00:39;6.90;99.90
48019;DHT22;33786;48.690;9.562;2023-12-20T10:03:07;6.80;99.90
48019;DHT22;33786;48.690;9.562;2023-12-20T10:05:35;6.70;99.90
48019;DHT22;33786;48.690;9.562;2023-12-20T10:08:02;6.70;99.90
48019;DHT22;33786;48.690;9.562;2023-12-20T10:10:30;6.80;99.90
48019;DHT22;33786;48.690;9.562;2023-12-20T10:13:12;6.80;99.90
48019;DHT22;33786;48.690;9.562;2023-12-20T10:15:40;6.60;99.90
48019;DHT22;33786;48.690;9.562;2023-12-20T10:18:08;6.80;99.90
48019;DHT22;33786;48.690;9.562;2023-12-20T10:20:35;6.80;99.90
48019;DHT22;33786;48.690;9.562;2023-12-20T10:23:02;6.70;99.90
48019;DHT22;33786;48.690;9.562;2023-12-20T10:25:30;6.70;99.90
48019;DHT22;33786;48.690;9.562;2023-12-20T10:28:12;6.70;99.90
48019;DHT22;33786;48.690;9.562;2023-12-20T10:30:41;6.70;99.90
48019;DHT22;33786;48.690;9.562;2023-12-20T10:33:09;6.70;99.90
48019;DHT22;33786;48.690;9.562;2023-12-20T10:35:38;6.90;99.90
48019;DHT22;33786;48.690;9.562;2023-12-20T10:38:10;6.90;99.90
48019;DHT22;33786;48.690;9.562;2023-12-20T10:40:38;7.00;99.90
48019;DHT22;33786;48.690;9.562;2023-12-20T10:43:05;7.50;99.90
48019;DHT22;33786;48.690;9.562;2023-12-20T10:45:33;7.90;99.90
48019;DHT22;33786;48.690;9.562;2023-12-20T10:48:01;8.10;99.90
48019;DHT22;33786;48.690;9.562;2023-12-20T10:50:29;7.90;99.90
48019;DHT22;33786;48.690;9.562;2023-12-20T10:52:58;7.40;99.90
48019;DHT22;33786;48.690;9.562;2023-12-20T10:55:25;7.40;99.90
48019;DHT22;33786;48.690;9.562;2023-12-20T10:58:01;7.20;99.90
48019;DHT22;33786;48.690;9.562;2023-12-20T11:00:29;6.80;99.90
48019;DHT22;33786;48.690;9.562;2023-12-20T11:03:00;6.70;99.90
48019;DHT22;33786;48.690;9.562;2023-12-20T11:11:34;6.80;99.90
48019;DHT22;33786;48.690;9.562;2023-12-20T11:14:05;6.80;99.90
48019;DHT22;33786;48.690;9.562;2023-12-20T11:16:33;6.70;99.90
48019;DHT22;33786;48.690;9.562;2023-12-20T11:19:14;6.80;99.90
48019;DHT22;33786;48.690;9.562;2023-12-20T11:21:41;6.90;99.90
48019;DHT22;33786;48.690;9.562;2023-12-20T11:24:09;6.80;99.90
48019;DHT22;33786;48.690;9.562;2023-12-20T11:26:36;6.90;99.90
48019;DHT22;33786;48.690;9.562;2023-12-20T11:29:31;6.90;99.90
48019;DHT22;33786;48.690;9.562;2023-12-20T11:32:00;6.80;99.90
48019;DHT22;33786;48.690;9.562;2023-12-20T11:34:31;6.70;99.90
48019;DHT22;33786;48.690;9.562;2023-12-20T11:36:59;6.70;99.90
48019;DHT22;33786;48.690;9.562;2023-12-20T11:39:27;7.00;99.90
48019;DHT22;33786;48.690;9.562;2023-12-20T11:41:56;7.20;99.90
48019;DHT22;33786;48.690;9.562;2023-12-20T11:44:25;7.40;99.90
48019;DHT22;33786;48.690;9.562;2023-12-20T11:46:54;7.20;99.90
48019;DHT22;33786;48.690;9.562;2023-12-20T11:49:23;7.00;99.90
48019;DHT22;33786;48.690;9.562;2023-12-20T11:51:50;6.90;99.90
48019;DHT22;33786;48.690;9.562;2023-12-20T11:54:18;6.60;99.90
48019;DHT22;33786;48.690;9.562;2023-12-20T11:56:46;6.50;99.90
48019;DHT22;33786;48.690;9.562;2023-12-20T11:59:13;6.40;99.90
48019;DHT22;33786;48.690;9.562;2023-12-20T12:01:50;6.40;99.90
48019;DHT22;33786;48.690;9.562;2023-12-20T12:04:17;6.30;99.90
48019;DHT22;33786;48.690;9.562;2023-12-20T12:06:45;6.20;99.90
48019;DHT22;33786;48.690;9.562;2023-12-20T12:09:12;6.20;99.90
48019;DHT22;33786;48.690;9.562;2023-12-20T12:11:39;6.00;99.90
48019;DHT22;33786;48.690;9.562;2023-12-20T12:14:07;5.90;99.90
48019;DHT22;33786;48.690;9.562;2023-12-20T12:16:34;6.00;99.90
48019;DHT22;33786;48.690;9.562;2023-12-20T12:19:01;6.00;99.90
48019;DHT22;33786;48.690;9.562;2023-12-20T12:21:28;5.90;99.90
48019;DHT22;33786;48.690;9.562;2023-12-20T12:24:09;5.90;99.90
48019;DHT22;33786;48.690;9.562;2023-12-20T12:26:36;5.80;99.90
48019;DHT22;33786;48.690;9.562;2023-12-20T12:29:03;5.70;99.90
48019;DHT22;33786;48.690;9.562;2023-12-20T12:31:30;5.80;99.90
48019;DHT22;33786;48.690;9.562;2023-12-20T12:33:57;5.80;99.90
48019;DHT22;33786;48.690;9.562;2023-12-20T12:36:24;5.80;99.90
48019;DHT22;33786;48.690;9.562;2023-12-20T12:38:51;5.80;99.90
48019;DHT22;33786;48.690;9.562;2023-12-20T12:41:18;6.20;99.90
48019;DHT22;33786;48.690;9.562;2023-12-20T12:43:45;5.80;99.90
48019;DHT22;33786;48.690;9.562;2023-12-20T12:46:12;5.80;99.90
48019;DHT22;33786;48.690;9.562;2023-12-20T12:48:39;5.80;99.90
48019;DHT22;33786;48.690;9.562;2023-12-20T12:51:09;5.80;99.90
48019;DHT22;33786;48.690;9.562;2023-12-20T12:53:40;5.90;99.90
48019;DHT22;33786;48.690;9.562;2023-12-20T12:56:07;5.80;99.90
48019;DHT22;33786;48.690;9.562;2023-12-20T12:58:34;5.80;99.90
48019;DHT22;33786;48.690;9.562;2023-12-20T13:01:01;5.70;99.90
48019;DHT22;33786;48.690;9.562;2023-12-20T13:03:28;5.70;99.90
48019;DHT22;33786;48.690;9.562;2023-12-20T13:05:55;5.60;99.90
48019;DHT22;33786;48.690;9.562;2023-12-20T13:08:22;5.50;99.90
48019;DHT22;33786;48.690;9.562;2023-12-20T13:10:48;5.60;99.90
48019;DHT22;33786;48.690;9.562;2023-12-20T13:13:16;5.60;99.90
48019;DHT22;33786;48.690;9.562;2023-12-20T13:15:43;5.60;99.90
48019;DHT22;33786;48.690;9.562;2023-12-20T13:18:17;5.60;99.90
48019;DHT22;33786;48.690;9.562;2023-12-20T13:20:47;5.70;99.90
48019;DHT22;33786;48.690;9.562;2023-12-20T13:23:15;5.60;99.90
48019;DHT22;33786;48.690;9.562;2023-12-20T13:25:42;5.70;99.90
48019;DHT22;33786;48.690;9.562;2023-12-20T13:28:08;5.70;99.90
48019;DHT22;33786;48.690;9.562;2023-12-20T13:30:36;5.70;99.90
48019;DHT22;33786;48.690;9.562;2023-12-20T13:33:03;5.80;99.90
48019;DHT22;33786;48.690;9.562;2023-12-20T13:35:31;5.60;99.90
48019;DHT22;33786;48.690;9.562;2023-12-20T13:37:59;5.60;99.90
48019;DHT22;33786;48.690;9.562;2023-12-20T13:40:26;5.50;99.90
48019;DHT22;33786;48.690;9.562;2023-12-20T13:42:53;5.60;99.90
48019;DHT22;33786;48.690;9.562;2023-12-20T13:45:21;5.60;99.90
48019;DHT22;33786;48.690;9.562;2023-12-20T13:47:48;5.60;99.90
48019;DHT22;33786;48.690;9.562;2023-12-20T13:50:16;5.70;99.90
48019;DHT22;33786;48.690;9.562;2023-12-20T13:52:43;5.70;99.90
48019;DHT22;33786;48.690;9.562;2023-12-20T13:55:10;5.70;99.90
48019;DHT22;33786;48.690;9.562;2023-12-20T13:57:37;5.70;99.90
48019;DHT22;33786;48.690;9.562;2023-12-20T14:00:20;5.70;99.90
48019;DHT22;33786;48.690;9.562;2023-12-20T14:02:47;5.60;99.90
48019;DHT22;33786;48.690;9.562;2023-12-20T14:05:15;5.70;99.90
48019;DHT22;33786;48.690;9.562;2023-12-20T14:07:45;5.70;99.90
48019;DHT22;33786;48.690;9.562;2023-12-20T14:10:13;5.80;99.90
48019;DHT22;33786;48.690;9.562;2023-12-20T14:12:40;5.80;99.90
48019;DHT22;33786;48.690;9.562;2023-12-20T14:15:07;5.80;99.90
48019;DHT22;33786;48.690;9.562;2023-12-20T14:17:38;5.70;99.90
48019;DHT22;33786;48.690;9.562;2023-12-20T14:20:06;5.60;99.90
48019;DHT22;33786;48.690;9.562;2023-12-20T14:22:34;5.50;99.90
48019;DHT22;33786;48.690;9.562;2023-12-20T14:25:02;5.50;99.90
48019;DHT22;33786;48.690;9.562;2023-12-20T14:27:29;5.50;99.90
48019;DHT22;33786;48.690;9.562;2023-12-20T14:29:56;5.60;99.90
48019;DHT22;33786;48.690;9.562;2023-12-20T14:32:24;5.50;99.90
48019;DHT22;33786;48.690;9.562;2023-12-20T14:34:53;5.60;99.90
48019;DHT22;33786;48.690;9.562;2023-12-20T14:37:21;5.50;99.90
48019;DHT22;33786;48.690;9.562;2023-12-20T14:39:49;5.90;99.90
48019;DHT22;33786;48.690;9.562;2023-12-20T14:42:16;5.40;99.90
48019;DHT22;33786;48.690;9.562;2023-12-20T14:44:43;5.40;99.90
48019;DHT22;33786;48.690;9.562;2023-12-20T14:47:10;5.50;99.90
48019;DHT22;33786;48.690;9.562;2023-12-20T14:49:37;5.50;99.90
48019;DHT22;33786;48.690;9.562;2023-12-20T14:52:04;5.40;99.90
48019;DHT22;33786;48.690;9.562;2023-12-20T14:54:32;5.40;99.90
48019;DHT22;33786;48.690;9.562;2023-12-20T14:56:59;5.40;99.90
48019;DHT22;33786;48.690;9.562;2023-12-20T14:59:31;5.40;99.90
48019;DHT22;33786;48.690;9.562;2023-12-20T15:01:58;5.40;99.90
48019;DHT22;33786;48.690;9.562;2023-12-20T15:04:25;5.50;99.90
48019;DHT22;33786;48.690;9.562;2023-12-20T15:06:56;5.40;99.90
48019;DHT22;33786;48.690;9.562;2023-12-20T15:09:23;5.50;99.90
48019;DHT22;33786;48.690;9.562;2023-12-20T15:11:51;5.50;99.90
48019;DHT22;33786;48.690;9.562;2023-12-20T15:14:17;5.50;99.90
48019;DHT22;33786;48.690;9.562;2023-12-20T15:16:47;5.50;99.90
48019;DHT22;33786;48.690;9.562;2023-12-20T15:19:14;5.60;99.90
48019;DHT22;33786;48.690;9.562;2023-12-20T15:21:41;5.60;99.90
48019;DHT22;33786;48.690;9.562;2023-12-20T15:24:14;5.60;99.90
48019;DHT22;33786;48.690;9.562;2023-12-20T15:26:46;5.50;99.90
48019;DHT22;33786;48.690;9.562;2023-12-20T15:29:14;5.40;99.90
48019;DHT22;33786;48.690;9.562;2023-12-20T15:31:43;5.30;99.90
48019;DHT22;33786;48.690;9.562;2023-12-20T15:34:10;5.20;99.90
48019;DHT22;33786;48.690;9.562;2023-12-20T15:36:38;5.20;99.90
48019;DHT22;33786;48.690;9.562;2023-12-20T15:39:06;5.20;99.90
48019;DHT22;33786;48.690;9.562;2023-12-20T15:41:35;5.20;99.90
48019;DHT22;33786;48.690;9.562;2023-12-20T15:44:02;5.10;99.90
48019;DHT22;33786;48.690;9.562;2023-12-20T15:46:29;5.10;99.90
48019;DHT22;33786;48.690;9.562;2023-12-20T15:48:56;5.00;99.90
48019;DHT22;33786;48.690;9.562;2023-12-20T15:51:23;5.00;99.90
48019;DHT22;33786;48.690;9.562;2023-12-20T15:53:51;5.00;99.90